Greenbrier Valley Airport
KLWB : now visible

Airfield :











YOU CAN JOIN US ON...

 
LOGIN :

Register | Disclaimer

   EN    FR    IT 

 









Legend :    VFR   Marginal VFR   IFR   Intensive IFR   Very Intensive IFR
Visi :
Ceiling :
>= 8 km
>= 3000ft
5 to 8 km
1000 to 3000 ft
1500m to 5 km
500 to 1000 ft
800 to 1500m
200 to 500 ft
< 800m
< 200 ft
Symbols :   Thunderstorms  Fog  Heavy snow  Heavy precipitations  Wind > 20 kt






- Airport Elevation : 2302 ft


KLWB - Greenbrier Valley

CURRENT METAR :
  • 250855Z AUTO 24003KT 10SM OVC050 04/03 A2985 RMK AO2 T00350032

EXPIRED METARs :
  • 250835Z AUTO 00000KT 10SM OVC050 04/04 A2986 RMK AO2 T00380036
  • 250815Z AUTO 00000KT 10SM SCT042 OVC050 04/04 A2986 RMK AO2 LTG DSNT S T00400039
  • 250755Z AUTO 00000KT 10SM BKN042 BKN049 04/03 A2985 RMK AO2 T00420033
  • 250735Z AUTO 00000KT 10SM SCT049 05/04 A2986 RMK AO2 T00500040
  • 250715Z AUTO 00000KT 10SM BKN049 06/05 A2986 RMK AO2 T00620045
  • 250655Z AUTO 27004KT 10SM OVC049 07/05 A2986 RMK AO2 T00680048
  • 250635Z AUTO 00000KT 10SM SCT041 BKN047 06/06 A2987 RMK AO2 T00570056
  • 250615Z AUTO 00000KT 10SM SCT023 SCT030 BKN038 06/05 A2987 RMK AO2 T00570051

TAF KLWB
Valid from the 25 at 06:00 until the 26 at 06:00 UTC


250540Z 2506/2606 27004KT P6SM BKN020 BKN060
FM251400 28010G18KT P6SM BKN025



MET'MAP, your aeronautical weather chart ! - Copyright ORBIFLY December 2007 - Disclaimer

ORBIFLY MET'MAP TEAM :

Programming & Development : Alexandra Zaïnal
Concept & original design : Baudouin d'Aumeries
Assistance for programming : Marc-Olivier Méhu
Technical & hardware support : Manuel Goepfert

Contact : metmap@orbifly.com




SOURCES & CREDITS :

   NOAA       Earth
Advisory